ADDS METAR Data INFO
IDs: Format: Raw Decoded Include TAF

Data at: 0755 UTC 23 Jul 2018

KRQE 230753Z AUTO 00000KT 10SM CLR 21/07 A3031 RMK AO2 SLP111 T02110067
KRQE 230653Z AUTO 36007KT 10SM CLR 24/06 A3031 RMK AO2 SLP111 T02440061 403390144
KRQE 230553Z AUTO VRB04KT 10SM CLR 24/07 A3032 RMK AO2 SLP110 T02440072 10333 20222 50009
KRQE 230453Z AUTO 00000KT 10SM CLR 26/08 A3032 RMK AO2 SLP111 T02560078
KRQE 230353Z AUTO 00000KT 10SM CLR 24/09 A3031 RMK AO2 SLP116 T02440089
KRQE 230253Z AUTO 00000KT 10SM CLR 28/07 A3028 RMK AO2 SLP108 T02830072 53003
KRQE 230153Z AUTO 26006KT 10SM CLR 31/07 A3028 RMK AO2 SLP110 T03110067
KRQE 230053Z AUTO 25005KT 10SM FEW100 32/05 A3027 RMK AO2 SLP114 T03220050
KRQE 222353Z AUTO 24007KT 10SM CLR 33/04 A3027 RMK AO2 SLP110 T03330044 10339 20294 56012
KRQE 222253Z AUTO 20007KT 170V240 10SM FEW100 32/04 A3029 RMK AO2 LTG DSNT NE SLP115 T03220044
KRQE 222153Z AUTO 10SM CLR 33/06 A3030 RMK AO2 SLP112 T03280061
KRQE 222053Z AUTO VRB06KT 10SM SCT100 33/07 A3032 RMK AO2 SLP123 T03280067 56010
KRQE 221953Z AUTO 10SM CLR 32/07 A3033 RMK AO2 SLP120 T03220072
KRQE 221853Z AUTO 16005KT 10SM FEW100 30/08 A3034 RMK AO2 SLP132 T03000078
KRQE 221753Z AUTO VRB05KT 10SM CLR 31/09 A3036 RMK AO2 SLP128 T03060089 10311 20144 58007
KRQE 221653Z AUTO 25005KT 10SM CLR 29/10 A3037 RMK AO2 SLP132 T02940100
KRQE 221553Z AUTO 21003KT 10SM CLR 26/10 A3038 RMK AO2 SLP140 T02610100
KRQE 221453Z AUTO 00000KT 10SM CLR 23/11 A3038 RMK AO2 SLP139 T02280106 51007
KRQE 221353Z AUTO 00000KT 10SM CLR 18/12 A3038 RMK AO2 SLP145 T01830122
KRQE 221253Z AUTO 00000KT 10SM CLR 14/11 A3037 RMK AO2 SLP145 T01440111
KRQE 221153Z AUTO 00000KT 10SM CLR 16/11 A3035 RMK AO2 SLP136 T01560111 10222 20150 53006
KRQE 221053Z AUTO 00000KT 10SM CLR 16/12 A3034 RMK AO2 SLP135 T01610117
KRQE 220953Z AUTO 00000KT 10SM CLR 18/12 A3033 RMK AO2 SLP125 T01780117
KRQE 220853Z AUTO 00000KT 10SM SCT120 17/11 A3033 RMK AO2 SLP125 T01720111 58001
KRQE 220753Z AUTO 00000KT 10SM FEW120 20/11 A3034 RMK AO2 SLP124 T02000111
KRQE 220653Z AUTO 00000KT 10SM CLR 20/11 A3035 RMK AO2 SLP127 T02000106 403440156
KRQE 220553Z AUTO 30004KT 10SM CLR 22/11 A3034 RMK AO2 SLP123 T02220106 10339 20217 51022
KRQE 220453Z AUTO 31006KT 10SM CLR 23/11 A3033 RMK AO2 SLP120 T02330106
KRQE 220353Z AUTO 01010KT 10SM CLR 25/10 A3029 RMK AO2 SLP108 T02500100
KRQE 220253Z AUTO 30009KT 10SM FEW120 29/08 A3026 RMK AO2 SLP093 T02890083 53013
KRQE 220153Z AUTO 24010KT 10SM CLR 31/03 A3023 RMK AO2 SLP089 T03110028
KRQE 220053Z AUTO 23006KT 10SM CLR 33/02 A3021 RMK AO2 LTG DSNT N AND NW SLP084 T03280022
KRQE 212353Z AUTO 20013G17KT 10SM FEW110 34/01 A3021 RMK AO2 SLP081 T03390011 10344 20294 56015
KRQE 212253Z AUTO VRB03KT 10SM CLR 32/05 A3023 RMK AO2 SLP091 T03220050
KRQE 212153Z AUTO 19008KT 10SM FEW100 33/06 A3024 RMK AO2 SLP093 T03280061
KRQE 212053Z AUTO VRB03KT 10SM CLR 33/06 A3026 RMK AO2 LTG DSNT N AND NW SLP100 T03330056 58018